createdAt,value
2022-08-01T00:00:15.838Z,0.57
2022-08-01T00:02:43.130Z,0.63
2022-08-01T00:05:11.776Z,0.70
2022-08-01T00:07:39.362Z,0.80
2022-08-01T00:10:07.646Z,0.80
2022-08-01T00:12:35.091Z,0.60
2022-08-01T00:15:02.544Z,0.70
2022-08-01T00:17:29.777Z,0.68
2022-08-01T00:19:57.023Z,0.60
2022-08-01T00:22:24.257Z,0.80
2022-08-01T00:24:51.530Z,0.55
2022-08-01T00:27:18.724Z,0.95
2022-08-01T00:30:09.800Z,0.55
2022-08-01T00:32:33.870Z,1.00
2022-08-01T00:35:01.124Z,0.80
2022-08-01T00:37:28.375Z,0.60
2022-08-01T00:39:55.584Z,0.80
2022-08-01T00:42:22.867Z,0.60
2022-08-01T00:44:50.084Z,0.60
2022-08-01T00:47:17.458Z,0.63
2022-08-01T00:49:44.695Z,0.80
2022-08-01T00:52:12.229Z,0.80
2022-08-01T00:54:40.520Z,0.75
2022-08-01T00:57:10.207Z,0.65
2022-08-01T00:59:40.009Z,0.55
2022-08-01T01:02:15.058Z,0.55
2022-08-01T01:04:43.722Z,0.50
2022-08-01T01:07:50.805Z,0.60
2022-08-01T01:10:21.449Z,0.80
2022-08-01T01:13:03.612Z,0.60
2022-08-01T01:15:37.306Z,0.50
2022-08-01T01:18:05.979Z,0.50
2022-08-01T01:20:35.595Z,0.85
2022-08-01T01:23:02.764Z,0.60
2022-08-01T01:25:39.121Z,0.60
2022-08-01T01:28:25.178Z,0.60
2022-08-01T01:30:53.263Z,0.70
2022-08-01T01:33:21.432Z,0.60
2022-08-01T01:35:50.615Z,0.70
2022-08-01T01:38:20.355Z,0.60
2022-08-01T01:40:48.366Z,0.85
2022-08-01T01:43:16.498Z,0.40
2022-08-01T01:45:45.416Z,0.70
2022-08-01T01:48:14.678Z,0.57
2022-08-01T01:50:42.771Z,0.57
2022-08-01T01:53:15.538Z,0.50
2022-08-01T01:55:49.633Z,0.60
2022-08-01T01:58:18.116Z,0.47
2022-08-01T02:00:46.485Z,0.50
2022-08-01T02:03:14.447Z,0.50
2022-08-01T02:05:43.196Z,0.60
2022-08-01T02:08:11.888Z,0.35
2022-08-01T02:10:40.020Z,0.60
2022-08-01T02:13:11.915Z,0.50
2022-08-01T02:16:00.415Z,0.45
2022-08-01T02:18:27.181Z,0.60
2022-08-01T02:20:56.131Z,0.40
2022-08-01T02:23:24.706Z,0.40
2022-08-01T02:26:09.740Z,0.50
2022-08-01T02:29:14.132Z,0.60
2022-08-01T02:31:46.020Z,0.30
2022-08-01T02:34:15.201Z,0.40
2022-08-01T02:36:42.490Z,0.63
2022-08-01T02:39:10.531Z,0.43
2022-08-01T02:41:40.604Z,0.47
2022-08-01T02:44:09.250Z,0.40
2022-08-01T02:46:42.595Z,0.57
2022-08-01T02:49:11.644Z,0.45
2022-08-01T02:51:40.892Z,0.40
2022-08-01T02:54:09.673Z,0.50
2022-08-01T02:56:37.667Z,0.40
2022-08-01T02:59:18.160Z,0.40
2022-08-01T03:01:50.845Z,0.40
2022-08-01T03:04:20.167Z,0.35
2022-08-01T03:06:48.057Z,0.40
2022-08-01T03:09:16.643Z,0.30
2022-08-01T03:11:44.752Z,0.30
2022-08-01T03:14:13.118Z,0.43
2022-08-01T03:16:42.218Z,0.52
2022-08-01T03:19:10.710Z,0.38
2022-08-01T03:21:39.293Z,0.60
2022-08-01T03:24:07.133Z,0.30
2022-08-01T03:26:36.588Z,0.35
2022-08-01T03:29:09.031Z,0.40
2022-08-01T03:31:37.577Z,0.38
2022-08-01T03:34:06.025Z,0.50
2022-08-01T03:36:34.774Z,0.30
2022-08-01T03:39:04.341Z,0.50
2022-08-01T03:41:35.695Z,0.35
2022-08-01T03:44:05.402Z,0.43
2022-08-01T03:46:43.445Z,0.40
2022-08-01T03:49:16.304Z,0.52
2022-08-01T03:51:46.033Z,0.40
2022-08-01T03:54:15.075Z,0.60
2022-08-01T03:56:43.379Z,0.45
2022-08-01T03:59:10.909Z,0.40
2022-08-01T04:01:38.530Z,0.40
2022-08-01T04:04:06.803Z,0.45
2022-08-01T04:06:34.098Z,0.50
2022-08-01T04:09:01.115Z,0.57
2022-08-01T04:11:29.491Z,0.85
2022-08-01T04:13:57.773Z,0.40
2022-08-01T04:16:25.061Z,0.50
2022-08-01T04:18:52.367Z,0.47
2022-08-01T04:21:20.388Z,0.60
2022-08-01T04:23:51.542Z,0.50
2022-08-01T04:26:21.651Z,0.40
2022-08-01T04:28:50.983Z,0.77
2022-08-01T04:31:19.063Z,0.73
2022-08-01T04:33:49.499Z,0.43
2022-08-01T04:36:17.966Z,0.50
2022-08-01T04:38:51.443Z,0.73
2022-08-01T04:41:19.462Z,0.68
2022-08-01T04:43:47.649Z,0.52
2022-08-01T04:46:15.267Z,0.38
2022-08-01T04:48:42.945Z,0.40
2022-08-01T04:51:16.312Z,0.50
2022-08-01T04:53:44.379Z,0.60
2022-08-01T04:56:14.187Z,0.40
2022-08-01T04:58:42.329Z,0.25
2022-08-01T05:01:10.187Z,0.40
2022-08-01T05:03:39.082Z,0.60
2022-08-01T05:06:06.666Z,0.45
2022-08-01T05:08:34.147Z,0.47
2022-08-01T05:11:02.226Z,0.50
2022-08-01T05:13:30.197Z,0.50
2022-08-01T05:15:57.305Z,0.32
2022-08-01T05:18:26.056Z,0.40
2022-08-01T05:20:55.328Z,0.57
2022-08-01T05:23:39.061Z,0.43
2022-08-01T05:26:09.763Z,0.63
2022-08-01T05:28:37.471Z,0.47
2022-08-01T05:31:04.997Z,0.43
2022-08-01T05:33:32.248Z,0.40
2022-08-01T05:35:59.635Z,0.60
2022-08-01T05:38:26.940Z,0.43
2022-08-01T05:40:54.142Z,0.50
2022-08-01T05:43:24.387Z,0.40
2022-08-01T05:45:55.659Z,0.50
2022-08-01T05:48:22.950Z,0.47
2022-08-01T05:50:50.671Z,0.52
2022-08-01T05:53:18.010Z,0.60
2022-08-01T05:55:45.207Z,0.50
2022-08-01T05:58:12.755Z,0.32
2022-08-01T06:00:40.503Z,0.55
2022-08-01T06:03:07.729Z,0.60
2022-08-01T06:05:34.975Z,0.40
2022-08-01T06:08:02.235Z,0.60
2022-08-01T06:10:29.099Z,0.50
2022-08-01T06:12:56.411Z,0.40
2022-08-01T06:15:23.633Z,0.63
2022-08-01T06:17:50.861Z,0.40
2022-08-01T06:20:18.124Z,0.70
2022-08-01T06:22:45.348Z,0.60
2022-08-01T06:25:21.347Z,0.40
2022-08-01T06:27:48.960Z,0.68
2022-08-01T06:30:16.431Z,0.40
2022-08-01T06:32:43.733Z,0.52
2022-08-01T06:35:10.975Z,0.50
2022-08-01T06:37:38.202Z,0.50
2022-08-01T06:40:14.724Z,0.50
2022-08-01T06:42:46.628Z,0.45
2022-08-01T06:45:14.291Z,0.52
2022-08-01T06:47:41.992Z,0.50
2022-08-01T06:50:10.473Z,0.50
2022-08-01T06:52:39.077Z,0.43
2022-08-01T06:55:06.650Z,0.40
2022-08-01T06:57:33.908Z,0.50
2022-08-01T07:00:03.620Z,0.50
2022-08-01T07:02:30.451Z,0.50
2022-08-01T07:05:01.220Z,0.70
2022-08-01T07:07:28.782Z,0.55
2022-08-01T07:09:55.996Z,0.40
2022-08-01T07:12:23.314Z,0.43
2022-08-01T07:14:50.610Z,0.40
2022-08-01T07:17:17.859Z,0.70
2022-08-01T07:19:45.271Z,0.50
2022-08-01T07:22:23.106Z,0.50
2022-08-01T07:24:54.551Z,0.70
2022-08-01T07:27:24.121Z,0.50
2022-08-01T07:29:53.768Z,0.50
2022-08-01T07:32:21.223Z,0.50
2022-08-01T07:34:48.523Z,0.50
2022-08-01T07:37:15.904Z,0.70
2022-08-01T07:39:43.141Z,0.60
2022-08-01T07:42:10.900Z,0.50
2022-08-01T07:44:38.833Z,0.50
2022-08-01T07:47:07.093Z,0.40
2022-08-01T07:49:39.433Z,0.63
2022-08-01T07:52:07.428Z,0.47
2022-08-01T07:54:35.066Z,0.70
2022-08-01T07:57:03.257Z,0.75
2022-08-01T07:59:30.580Z,0.60
2022-08-01T08:01:57.911Z,0.60
2022-08-01T08:04:25.450Z,0.60
2022-08-01T08:06:54.304Z,0.50
2022-08-01T08:09:21.690Z,0.50
2022-08-01T08:11:49.004Z,0.73
2022-08-01T08:14:17.257Z,0.70
2022-08-01T08:16:44.925Z,0.50
2022-08-01T08:19:12.431Z,0.50
2022-08-01T08:21:40.095Z,0.70
2022-08-01T08:24:25.948Z,0.43
2022-08-01T08:26:55.744Z,0.70
2022-08-01T08:29:23.347Z,0.50
2022-08-01T08:31:53.012Z,0.70
2022-08-01T08:34:20.866Z,0.40
2022-08-01T08:36:48.893Z,0.60
2022-08-01T08:39:19.890Z,0.63
2022-08-01T08:41:49.156Z,0.70
2022-08-01T08:44:17.754Z,0.70
2022-08-01T08:46:46.243Z,0.55
2022-08-01T08:49:14.617Z,0.68
2022-08-01T08:51:43.097Z,0.60
2022-08-01T08:54:12.129Z,0.70
2022-08-01T08:56:39.631Z,0.82
2022-08-01T08:59:06.853Z,0.40
2022-08-01T09:01:34.567Z,0.50
2022-08-01T09:04:04.804Z,0.63
2022-08-01T09:06:32.761Z,0.45
2022-08-01T09:09:00.345Z,0.60
2022-08-01T09:11:28.055Z,0.57
2022-08-01T09:14:09.515Z,0.50
2022-08-01T09:16:37.375Z,0.80
2022-08-01T09:19:16.132Z,0.57
2022-08-01T09:22:00.772Z,0.60
2022-08-01T09:24:30.474Z,0.35
2022-08-01T09:26:58.575Z,0.50
2022-08-01T09:29:38.332Z,0.40
2022-08-01T09:32:14.158Z,0.50
2022-08-01T09:34:43.788Z,0.60
2022-08-01T09:37:18.350Z,0.50
2022-08-01T09:39:58.878Z,0.52
2022-08-01T09:42:29.514Z,0.50
2022-08-01T09:44:57.058Z,0.60
2022-08-01T09:47:38.771Z,0.60
2022-08-01T09:50:10.681Z,0.60
2022-08-01T09:52:41.095Z,0.70
2022-08-01T09:55:09.355Z,1.00
2022-08-01T09:57:36.346Z,0.70
2022-08-01T10:00:04.687Z,0.45
2022-08-01T10:05:09.320Z,0.40
2022-08-01T10:07:43.175Z,0.43
2022-08-01T10:10:15.636Z,0.57
2022-08-01T10:12:45.103Z,0.40
2022-08-01T10:15:16.425Z,0.70
2022-08-01T10:17:54.428Z,0.70
2022-08-01T10:20:30.293Z,0.60
2022-08-01T10:23:00.446Z,0.60
2022-08-01T10:25:41.885Z,0.70
2022-08-01T10:28:21.532Z,0.50
2022-08-01T10:30:53.220Z,0.60
2022-08-01T10:33:51.392Z,0.50
2022-08-01T10:36:11.351Z,0.52
2022-08-01T10:38:38.912Z,0.63
2022-08-01T10:41:08.634Z,0.70
2022-08-01T10:43:36.757Z,0.70
2022-08-01T10:46:05.155Z,0.70
2022-08-01T10:48:35.662Z,0.68
2022-08-01T10:51:18.083Z,0.60
2022-08-01T10:53:50.218Z,0.73
2022-08-01T10:56:26.310Z,0.60
2022-08-01T10:59:02.020Z,0.50
2022-08-01T11:01:37.854Z,0.45
2022-08-01T11:04:15.614Z,0.50
2022-08-01T11:07:01.956Z,0.50
2022-08-01T11:09:39.967Z,0.65
2022-08-01T11:12:13.355Z,0.68
2022-08-01T11:15:03.092Z,0.50
2022-08-01T11:17:42.882Z,0.50
2022-08-01T11:20:17.515Z,0.75
2022-08-01T11:23:04.733Z,0.70
2022-08-01T11:26:06.062Z,0.65
2022-08-01T11:28:32.465Z,0.50
2022-08-01T11:31:02.740Z,0.43
2022-08-01T11:33:49.357Z,0.63
2022-08-01T11:36:17.087Z,0.52
2022-08-01T11:38:45.546Z,0.82
2022-08-01T11:41:38.311Z,0.60
2022-08-01T11:44:06.646Z,0.60
2022-08-01T11:46:56.312Z,0.60
2022-08-01T11:49:49.365Z,0.55
2022-08-01T11:52:28.639Z,0.60
2022-08-01T11:54:57.717Z,0.70
2022-08-01T11:57:35.928Z,0.82
2022-08-01T12:00:15.441Z,0.70
2022-08-01T12:02:45.514Z,0.60
2022-08-01T12:05:21.579Z,0.70
2022-08-01T12:07:53.151Z,0.50
2022-08-01T12:10:21.511Z,0.60
2022-08-01T12:12:50.070Z,0.60
2022-08-01T12:15:17.975Z,0.40
2022-08-01T12:17:57.918Z,0.70
2022-08-01T12:20:30.359Z,0.40
2022-08-01T12:22:59.104Z,0.60
2022-08-01T12:25:26.466Z,0.43
2022-08-01T12:27:56.530Z,0.43
2022-08-01T12:30:25.963Z,0.40
2022-08-01T12:32:54.014Z,0.40
2022-08-01T12:35:25.753Z,0.38
2022-08-01T12:37:57.315Z,0.60
2022-08-01T12:40:45.487Z,0.70
2022-08-01T12:43:27.607Z,0.60
2022-08-01T12:45:57.868Z,0.70
2022-08-01T12:48:26.276Z,0.65
2022-08-01T12:50:55.004Z,0.60
2022-08-01T12:53:22.830Z,0.50
2022-08-01T12:55:59.388Z,0.55
2022-08-01T12:58:34.249Z,0.52
2022-08-01T13:01:07.013Z,0.40
2022-08-01T13:03:34.377Z,0.52
2022-08-01T13:06:01.790Z,0.80
2022-08-01T13:08:33.872Z,0.38
2022-08-01T13:11:09.777Z,0.50
2022-08-01T13:13:39.845Z,0.50
2022-08-01T13:16:08.601Z,0.70
2022-08-01T13:18:39.948Z,0.43
2022-08-01T13:21:11.675Z,0.40
2022-08-01T13:24:03.366Z,0.80
2022-08-01T13:26:49.179Z,0.50
2022-08-01T13:29:17.445Z,0.68
2022-08-01T13:31:45.242Z,0.70
2022-08-01T13:34:12.640Z,0.70
2022-08-01T13:36:42.107Z,0.63
2022-08-01T13:39:33.287Z,0.50
2022-08-01T13:42:00.566Z,0.70
2022-08-01T13:44:27.507Z,0.60
2022-08-01T13:46:54.765Z,0.40
2022-08-01T13:49:22.750Z,0.30
2022-08-01T13:51:51.670Z,0.60
2022-08-01T13:54:19.427Z,0.40
2022-08-01T13:56:46.984Z,0.52
2022-08-01T13:59:14.686Z,0.57
2022-08-01T14:01:41.980Z,0.43
2022-08-01T14:04:09.433Z,0.43
2022-08-01T14:06:37.199Z,0.60
2022-08-01T14:09:17.854Z,0.40
2022-08-01T14:11:45.852Z,0.38
2022-08-01T14:14:13.923Z,0.47
2022-08-01T14:16:41.223Z,0.40
2022-08-01T14:19:09.204Z,0.55
2022-08-01T14:21:36.458Z,0.40
2022-08-01T14:24:03.723Z,0.40
2022-08-01T14:26:30.956Z,0.40
2022-08-01T14:28:58.347Z,0.40
2022-08-01T14:31:25.572Z,0.50
2022-08-01T14:33:52.500Z,0.60
2022-08-01T14:36:28.957Z,0.52
2022-08-01T14:39:00.338Z,0.57
2022-08-01T14:41:28.559Z,0.35
2022-08-01T14:43:58.022Z,0.50
2022-08-01T14:46:25.396Z,0.35
2022-08-01T14:48:52.885Z,0.40
2022-08-01T14:51:20.267Z,0.40
2022-08-01T14:53:53.043Z,0.50
2022-08-01T14:56:20.645Z,0.30
2022-08-01T14:58:48.687Z,0.50
2022-08-01T15:01:16.240Z,0.75
2022-08-01T15:03:43.629Z,0.40
2022-08-01T15:06:12.432Z,0.50
2022-08-01T15:08:39.833Z,0.60
2022-08-01T15:11:07.245Z,0.55
2022-08-01T15:13:37.087Z,0.47
2022-08-01T15:16:07.198Z,0.75
2022-08-01T15:18:35.028Z,0.50
2022-08-01T15:21:02.405Z,0.60
2022-08-01T15:23:29.707Z,0.60
2022-08-01T15:25:56.990Z,0.65
2022-08-01T15:28:24.232Z,0.60
2022-08-01T15:30:51.448Z,0.47
2022-08-01T15:33:18.739Z,0.47
2022-08-01T15:35:46.049Z,0.40
2022-08-01T15:38:13.246Z,0.45
2022-08-01T15:40:40.460Z,0.50
2022-08-01T15:43:07.856Z,0.50
2022-08-01T15:45:47.532Z,0.52
2022-08-01T15:48:15.274Z,0.57
2022-08-01T15:50:42.496Z,0.60
2022-08-01T15:53:09.313Z,0.73
2022-08-01T15:55:38.211Z,0.50
2022-08-01T15:58:06.314Z,0.50
2022-08-01T16:00:33.815Z,0.80
2022-08-01T16:03:07.084Z,0.43
2022-08-01T16:05:40.985Z,0.45
2022-08-01T16:08:14.161Z,0.50
2022-08-01T16:10:41.376Z,0.40
2022-08-01T16:13:08.879Z,0.47
2022-08-01T16:15:37.506Z,0.60
2022-08-01T16:18:08.873Z,0.38
2022-08-01T16:20:39.075Z,0.35
2022-08-01T16:23:10.321Z,0.73
2022-08-01T16:25:38.059Z,0.30
2022-08-01T16:28:05.437Z,0.40
2022-08-01T16:30:34.586Z,0.47
2022-08-01T16:33:04.021Z,0.55
2022-08-01T16:35:36.231Z,0.45
2022-08-01T16:38:05.152Z,0.52
2022-08-01T16:40:46.242Z,0.57
2022-08-01T16:43:14.313Z,0.38
2022-08-01T16:45:43.044Z,0.70
2022-08-01T16:48:12.157Z,0.40
2022-08-01T16:50:39.406Z,0.52
2022-08-01T16:53:06.677Z,0.40
2022-08-01T16:55:49.953Z,0.45
2022-08-01T16:58:18.819Z,0.47
2022-08-01T17:00:56.366Z,0.40
2022-08-01T17:03:47.123Z,0.40
2022-08-01T17:06:11.678Z,0.30
2022-08-01T17:08:46.423Z,0.50
2022-08-01T17:11:15.152Z,0.40
2022-08-01T17:13:42.984Z,0.38
2022-08-01T17:16:10.802Z,0.43
2022-08-01T17:18:38.043Z,0.47
2022-08-01T17:21:05.357Z,0.43
2022-08-01T17:23:33.615Z,0.57
2022-08-01T17:26:01.133Z,0.50
2022-08-01T17:28:28.378Z,0.43
2022-08-01T17:30:55.730Z,0.38
2022-08-01T17:33:22.944Z,0.40
2022-08-01T17:35:50.528Z,0.50
2022-08-01T17:38:18.307Z,0.40
2022-08-01T17:40:45.649Z,0.50
2022-08-01T17:43:13.957Z,0.40
2022-08-01T17:45:50.736Z,0.40
2022-08-01T17:48:19.285Z,0.38
2022-08-01T17:50:47.700Z,0.40
2022-08-01T17:53:15.780Z,0.68
2022-08-01T17:55:56.034Z,0.47
2022-08-01T18:01:00.873Z,0.65
2022-08-01T18:03:30.468Z,0.60
2022-08-01T18:05:59.235Z,0.60
2022-08-01T18:08:30.086Z,0.50
2022-08-01T18:10:59.234Z,1.17
2022-08-01T18:13:26.837Z,0.82
2022-08-01T18:15:56.519Z,0.63
2022-08-01T18:18:33.262Z,0.63
2022-08-01T18:21:01.870Z,0.90
2022-08-01T18:23:29.189Z,0.70
2022-08-01T18:25:56.455Z,0.70
2022-08-01T18:28:32.915Z,0.77
2022-08-01T18:31:03.973Z,0.80
2022-08-01T18:33:31.352Z,0.93
2022-08-01T18:36:03.450Z,0.88
2022-08-01T18:38:32.978Z,0.90
2022-08-01T18:41:01.029Z,1.10
2022-08-01T18:43:28.459Z,0.93
2022-08-01T18:45:58.892Z,1.10
2022-08-01T18:48:26.202Z,1.08
2022-08-01T18:50:54.006Z,0.65
2022-08-01T18:53:23.656Z,0.60
2022-08-01T18:55:51.040Z,0.82
2022-08-01T18:58:18.578Z,1.08
2022-08-01T19:00:45.777Z,0.93
2022-08-01T19:03:13.758Z,0.77
2022-08-01T19:05:41.028Z,0.93
2022-08-01T19:08:08.449Z,0.93
2022-08-01T19:10:42.492Z,1.15
2022-08-01T19:13:09.971Z,1.15
2022-08-01T19:15:37.196Z,0.98
2022-08-01T19:18:04.713Z,1.42
2022-08-01T19:20:31.970Z,1.60
2022-08-01T19:22:59.232Z,1.60
2022-08-01T19:25:26.493Z,1.48
2022-08-01T19:27:54.940Z,1.02
2022-08-01T19:30:22.474Z,1.10
2022-08-01T19:32:49.816Z,1.10
2022-08-01T19:35:17.891Z,0.95
2022-08-01T19:37:52.494Z,0.95
2022-08-01T19:40:27.635Z,1.00
2022-08-01T19:42:55.964Z,0.98
2022-08-01T19:45:23.240Z,1.13
2022-08-01T19:47:57.386Z,1.27
2022-08-01T19:50:26.424Z,1.02
2022-08-01T19:52:55.463Z,0.95
2022-08-01T19:55:25.144Z,1.40
2022-08-01T19:58:17.280Z,1.40
2022-08-01T20:00:40.864Z,1.13
2022-08-01T20:03:08.375Z,1.25
2022-08-01T20:05:37.119Z,1.02
2022-08-01T20:08:04.572Z,0.80
2022-08-01T20:10:32.928Z,1.40
2022-08-01T20:13:01.906Z,1.33
2022-08-01T20:15:29.979Z,1.13
2022-08-01T20:18:00.311Z,1.00
2022-08-01T20:20:27.861Z,1.35
2022-08-01T20:22:56.970Z,1.58
2022-08-01T20:25:32.065Z,1.60
2022-08-01T20:28:05.559Z,1.10
2022-08-01T20:30:33.439Z,1.13
2022-08-01T20:33:00.664Z,1.33
2022-08-01T20:35:51.866Z,1.63
2022-08-01T20:38:17.108Z,0.80
2022-08-01T20:40:45.646Z,1.55
2022-08-01T20:43:13.772Z,1.25
2022-08-01T20:45:42.344Z,1.10
2022-08-01T20:48:12.237Z,1.27
2022-08-01T20:50:58.360Z,1.13
2022-08-01T20:53:26.113Z,0.95
2022-08-01T20:56:13.574Z,1.25
2022-08-01T20:58:40.781Z,1.30
2022-08-01T21:01:09.827Z,1.15
2022-08-01T21:03:40.839Z,1.50
2022-08-01T21:06:18.825Z,1.45
2022-08-01T21:08:49.961Z,1.23
2022-08-01T21:11:20.565Z,1.63
2022-08-01T21:13:49.217Z,1.20
2022-08-01T21:16:23.743Z,1.30
2022-08-01T21:19:17.980Z,1.33
2022-08-01T21:21:45.057Z,1.50
2022-08-01T21:24:19.409Z,1.38
2022-08-01T21:26:47.201Z,1.48
2022-08-01T21:29:16.740Z,1.20
2022-08-01T21:31:46.885Z,1.60
2022-08-01T21:34:15.738Z,1.00
2022-08-01T21:36:44.715Z,1.30
2022-08-01T21:39:12.143Z,1.38
2022-08-01T21:41:56.551Z,1.30
2022-08-01T21:44:29.307Z,1.20
2022-08-01T21:47:00.112Z,1.25
2022-08-01T21:49:28.316Z,1.48
2022-08-01T21:52:00.539Z,1.10
2022-08-01T21:54:41.033Z,1.63
2022-08-01T21:57:08.227Z,1.63
2022-08-01T22:00:05.415Z,1.60
2022-08-01T22:02:44.588Z,2.33
2022-08-01T22:05:13.436Z,1.40
2022-08-01T22:07:48.425Z,1.10
2022-08-01T22:10:20.327Z,1.23
2022-08-01T22:12:47.489Z,1.23
2022-08-01T22:15:15.423Z,1.27
2022-08-01T22:17:44.859Z,1.13
2022-08-01T22:20:12.472Z,1.20
2022-08-01T22:22:50.923Z,1.30
2022-08-01T22:25:20.176Z,1.17
2022-08-01T22:28:05.807Z,1.30
2022-08-01T22:30:39.097Z,1.30
2022-08-01T22:33:16.377Z,1.15
2022-08-01T22:35:49.950Z,1.35
2022-08-01T22:38:18.775Z,1.00
2022-08-01T22:40:50.252Z,1.20
2022-08-01T22:43:40.259Z,1.50
2022-08-01T22:46:07.671Z,1.50
2022-08-01T22:48:50.045Z,1.35
2022-08-01T22:51:34.047Z,1.42
2022-08-01T22:54:01.232Z,1.48
2022-08-01T22:56:32.071Z,1.65
2022-08-01T22:59:04.647Z,1.30
2022-08-01T23:01:34.276Z,1.40
2022-08-01T23:04:03.544Z,1.50
2022-08-01T23:06:41.737Z,1.50
2022-08-01T23:09:13.052Z,1.67
2022-08-01T23:11:40.373Z,1.42
2022-08-01T23:14:07.734Z,1.20
2022-08-01T23:16:36.781Z,1.42
2022-08-01T23:19:04.482Z,1.95
2022-08-01T23:21:32.117Z,1.40
2022-08-01T23:23:59.572Z,1.77
2022-08-01T23:26:30.290Z,1.27
2022-08-01T23:28:58.581Z,1.30
2022-08-01T23:32:03.302Z,1.80
2022-08-01T23:34:17.939Z,1.30
2022-08-01T23:36:47.131Z,1.48
2022-08-01T23:39:14.334Z,1.38
2022-08-01T23:41:57.965Z,1.30
2022-08-01T23:44:25.900Z,1.08
2022-08-01T23:46:53.364Z,1.10
2022-08-01T23:49:20.178Z,1.27
2022-08-01T23:51:47.634Z,1.40
2022-08-01T23:54:14.832Z,1.10
2022-08-01T23:56:43.999Z,1.55
2022-08-01T23:59:13.032Z,1.50
